Time;durP1;ratioP1;P1;durP2;ratioP2;P2;SDS_P1;SDS_P2;PMS_P1;PMS_P2;Temp;Humidity;BMP_temperature;BMP_pressure;BME280_temperature;BME280_humidity;BME280_pressure;Samples;Min_cycle;Max_cycle;Signal;HPM_P1;HPM_P2
2022/01/08 00:00:45;;;;;;;1.45;0.40;;;26.90;99.90;;;;;;5072684;28;20024;-64
2022/01/08 00:03:12;;;;;;;2.20;0.47;;;27.00;99.90;;;;;;5067508;28;20055;-65
2022/01/08 00:05:39;;;;;;;2.30;0.57;;;27.00;99.90;;;;;;5067638;28;20057;-65
2022/01/08 00:08:06;;;;;;;0.73;0.30;;;27.10;99.90;;;;;;5072294;28;20031;-65
2022/01/08 00:10:34;;;;;;;0.93;0.40;;;27.10;99.90;;;;;;5069100;28;20044;-66
2022/01/08 00:13:04;;;;;;;4.05;0.50;;;27.10;99.90;;;;;;5067962;28;20028;-67
2022/01/08 00:15:32;;;;;;;0.70;0.30;;;27.10;99.90;;;;;;5074773;28;20499;-66
2022/01/08 00:17:59;;;;;;;1.40;0.40;;;27.20;99.90;;;;;;5071564;28;20021;-67
2022/01/08 00:20:30;;;;;;;1.67;0.50;;;27.10;99.90;;;;;;5071568;28;20035;-66
2022/01/08 00:22:57;;;;;;;1.30;0.70;;;27.30;99.90;;;;;;5062133;28;20089;-66
2022/01/08 00:25:24;;;;;;;0.80;0.30;;;27.40;99.90;;;;;;5070939;28;20016;-66
2022/01/08 00:27:52;;;;;;;1.63;0.43;;;27.20;99.90;;;;;;5069462;28;20032;-66
2022/01/08 00:30:19;;;;;;;1.30;0.30;;;27.30;99.90;;;;;;5071173;28;20116;-66
2022/01/08 00:32:46;;;;;;;1.13;0.38;;;27.50;99.90;;;;;;5071166;28;20089;-65
2022/01/08 00:35:14;;;;;;;2.33;0.50;;;27.50;99.90;;;;;;5065108;28;20043;-66
2022/01/08 00:37:42;;;;;;;2.08;0.60;;;27.80;99.90;;;;;;5072478;28;20020;-66
2022/01/08 00:40:11;;;;;;;1.85;0.40;;;28.00;99.90;;;;;;5054929;28;20035;-66
2022/01/08 00:42:39;;;;;;;2.95;0.32;;;28.00;99.90;;;;;;5072215;28;20024;-66
2022/01/08 00:45:07;;;;;;;1.95;0.43;;;28.10;99.90;;;;;;5065215;28;20040;-67
2022/01/08 00:47:34;;;;;;;1.27;0.50;;;28.00;99.90;;;;;;5070963;28;20048;-67
2022/01/08 00:50:04;;;;;;;1.77;0.40;;;27.90;99.90;;;;;;5073017;28;20029;-66
2022/01/08 00:52:32;;;;;;;0.55;0.30;;;27.80;99.90;;;;;;5069471;28;20023;-67
2022/01/08 00:54:59;;;;;;;1.83;0.52;;;27.90;99.90;;;;;;5055933;28;20028;-67
2022/01/08 00:57:26;;;;;;;0.43;0.30;;;28.20;99.90;;;;;;5060181;28;20039;-66
2022/01/08 00:59:53;;;;;;;2.05;0.30;;;28.30;99.90;;;;;;5064361;28;20026;-66
2022/01/08 01:02:21;;;;;;;1.90;0.60;;;28.40;99.90;;;;;;5060580;28;20032;-66
2022/01/08 01:04:48;;;;;;;0.95;0.50;;;28.60;99.90;;;;;;5062822;28;20020;-66
2022/01/08 01:07:15;;;;;;;0.57;0.38;;;28.60;99.90;;;;;;5054234;28;20041;-66
2022/01/08 01:09:42;;;;;;;1.90;0.40;;;28.40;99.90;;;;;;5071133;28;20029;-66
2022/01/08 01:12:10;;;;;;;1.17;0.60;;;28.50;99.90;;;;;;5069434;28;20293;-67
2022/01/08 01:14:40;;;;;;;2.05;0.35;;;28.50;99.90;;;;;;5068385;28;20029;-66
2022/01/08 01:17:07;;;;;;;2.88;0.60;;;28.40;99.90;;;;;;5067995;28;20455;-67
2022/01/08 01:19:36;;;;;;;1.83;0.38;;;28.50;99.90;;;;;;5060391;28;20021;-66
2022/01/08 01:22:04;;;;;;;3.53;0.93;;;28.60;99.90;;;;;;5063637;28;20084;-66
2022/01/08 01:24:33;;;;;;;2.90;1.10;;;28.80;99.90;;;;;;5063444;28;20378;-66
2022/01/08 01:30:01;;;;;;;1.85;1.35;;;28.70;99.90;;;;;;5057760;28;20041;-66
2022/01/08 01:47:00;;;;;;;3.10;1.10;;;29.40;99.90;;;;;;5063223;28;20524;-67
2022/01/08 01:48:54;;;;;;;6.07;2.75;;;29.60;99.90;;;;;;5065480;28;20466;-67
2022/01/08 01:51:24;;;;;;;3.08;1.98;;;29.80;99.90;;;;;;5070184;28;20025;-67
2022/01/08 01:53:52;;;;;;;4.00;2.40;;;29.90;99.90;;;;;;5060729;28;20028;-67
2022/01/08 01:56:20;;;;;;;3.63;2.30;;;29.80;99.90;;;;;;5053548;28;20040;-67
2022/01/08 01:58:48;;;;;;;4.78;2.30;;;29.80;99.90;;;;;;5068008;28;20081;-67
2022/01/08 02:01:16;;;;;;;3.15;2.10;;;30.10;99.90;;;;;;5068002;28;20029;-67
2022/01/08 02:03:44;;;;;;;3.85;2.78;;;30.10;99.90;;;;;;5064528;28;20040;-67
2022/01/08 02:06:11;;;;;;;5.57;2.20;;;30.10;99.90;;;;;;5063687;28;20044;-67
2022/01/08 02:08:39;;;;;;;4.28;1.50;;;29.80;99.90;;;;;;5042658;28;20045;-67
2022/01/08 02:11:07;;;;;;;2.95;1.92;;;30.00;99.90;;;;;;5062335;28;20021;-67
2022/01/08 02:13:35;;;;;;;5.32;2.35;;;30.10;99.90;;;;;;5067252;28;20101;-67
2022/01/08 02:16:05;;;;;;;4.68;2.65;;;29.80;99.90;;;;;;5070565;28;20035;-67
2022/01/08 02:18:34;;;;;;;5.05;2.33;;;30.00;99.90;;;;;;5064631;28;20028;-67
2022/01/08 02:21:03;;;;;;;7.28;2.28;;;30.00;99.90;;;;;;5072640;28;20048;-68
2022/01/08 02:23:30;;;;;;;5.38;2.55;;;29.70;99.90;;;;;;5066466;28;20025;-67
2022/01/08 02:26:05;;;;;;;7.47;2.10;;;29.50;99.90;;;;;;5067307;28;20093;-67
2022/01/08 02:28:33;;;;;;;4.75;1.92;;;29.40;99.90;;;;;;5068467;28;20120;-67
2022/01/08 02:31:00;;;;;;;6.78;2.67;;;29.10;99.90;;;;;;5067729;28;20043;-67
2022/01/08 02:33:29;;;;;;;8.52;2.45;;;29.10;99.90;;;;;;5072141;28;20032;-67
2022/01/08 02:35:58;;;;;;;4.05;2.35;;;29.10;99.90;;;;;;5071268;28;20153;-67
2022/01/08 02:38:25;;;;;;;5.30;2.80;;;29.20;99.90;;;;;;5052359;28;20031;-67
2022/01/08 02:41:02;;;;;;;7.10;2.35;;;29.10;99.90;;;;;;5066559;28;20021;-67
2022/01/08 02:43:33;;;;;;;4.25;2.28;;;29.10;99.90;;;;;;5067711;28;20040;-67
2022/01/08 02:46:01;;;;;;;5.85;2.50;;;28.80;99.90;;;;;;5084360;28;20073;-66
2022/01/08 02:48:28;;;;;;;3.30;2.53;;;28.70;99.90;;;;;;5070841;28;20024;-67
2022/01/08 02:50:55;;;;;;;3.65;2.60;;;28.70;99.90;;;;;;5051826;28;20500;-67
2022/01/08 02:53:23;;;;;;;3.65;2.10;;;28.80;99.90;;;;;;5052781;28;20036;-67
2022/01/08 02:55:51;;;;;;;3.67;2.08;;;29.10;99.90;;;;;;5052818;28;20061;-66
2022/01/08 02:58:18;;;;;;;3.92;2.00;;;29.60;99.90;;;;;;5066342;28;20397;-66
2022/01/08 03:00:46;;;;;;;2.53;1.88;;;29.90;99.90;;;;;;5069279;28;20017;-66
2022/01/08 03:03:14;;;;;;;10.07;2.10;;;29.90;99.90;;;;;;5049905;28;20032;-66
2022/01/08 03:05:41;;;;;;;4.10;2.20;;;29.60;99.90;;;;;;5083450;28;20480;-66
2022/01/08 03:08:08;;;;;;;4.07;1.80;;;29.40;99.90;;;;;;5078961;28;20102;-66
2022/01/08 03:10:36;;;;;;;4.55;1.92;;;29.30;99.90;;;;;;5073229;28;20376;-66
2022/01/08 03:13:05;;;;;;;3.13;2.13;;;29.40;99.90;;;;;;5069815;28;20500;-67
2022/01/08 03:15:35;;;;;;;4.85;1.63;;;29.70;99.90;;;;;;5070387;28;20079;-66
2022/01/08 03:18:04;;;;;;;3.10;1.73;;;29.40;99.90;;;;;;5070392;28;20028;-66
2022/01/08 03:20:33;;;;;;;4.57;2.20;;;29.30;99.90;;;;;;5070739;28;20017;-67
2022/01/08 03:23:03;;;;;;;3.97;1.98;;;29.60;99.90;;;;;;5069496;28;20089;-66
2022/01/08 03:25:31;;;;;;;3.60;1.88;;;29.80;99.90;;;;;;5064103;28;20371;-67
2022/01/08 03:27:59;;;;;;;3.22;1.77;;;29.80;99.90;;;;;;5064819;28;20028;-66
2022/01/08 03:30:28;;;;;;;4.50;1.70;;;29.90;99.90;;;;;;5074779;28;20591;-66
2022/01/08 03:32:55;;;;;;;3.00;1.42;;;29.60;99.90;;;;;;5069785;28;20489;-67
2022/01/08 03:35:22;;;;;;;4.47;1.33;;;29.00;99.90;;;;;;5066698;28;20016;-67
2022/01/08 03:37:50;;;;;;;3.72;1.23;;;28.80;99.90;;;;;;5066085;28;20056;-68
2022/01/08 03:40:17;;;;;;;3.88;1.35;;;28.80;99.90;;;;;;5070532;28;20024;-67
2022/01/08 03:42:44;;;;;;;3.33;1.42;;;28.70;99.90;;;;;;5063204;28;20127;-66
2022/01/08 03:45:12;;;;;;;3.22;1.50;;;28.70;99.90;;;;;;5073867;28;20035;-67
2022/01/08 03:50:17;;;;;;;3.75;1.48;;;28.30;99.90;;;;;;5074756;28;20055;-67
2022/01/08 03:52:46;;;;;;;3.55;1.20;;;28.20;99.90;;;;;;5067422;28;20037;-67
2022/01/08 03:55:14;;;;;;;4.45;1.35;;;28.20;99.90;;;;;;5061497;28;20025;-67
2022/01/08 03:57:41;;;;;;;3.13;1.15;;;28.30;99.90;;;;;;5061436;28;20027;-68
2022/01/08 04:00:10;;;;;;;3.80;1.50;;;28.50;99.90;;;;;;5073457;28;20480;-67
2022/01/08 04:02:38;;;;;;;3.08;1.17;;;28.60;99.90;;;;;;5073258;28;20094;-67
2022/01/08 04:05:05;;;;;;;3.35;1.30;;;28.60;99.90;;;;;;5072515;28;20029;-67
2022/01/08 04:07:33;;;;;;;2.25;1.58;;;28.70;99.90;;;;;;5072683;28;20397;-66
2022/01/08 04:10:00;;;;;;;6.25;1.52;;;28.80;99.90;;;;;;5069450;28;20047;-66
2022/01/08 04:12:49;;;;;;;3.28;1.48;;;28.70;99.90;;;;;;5068779;28;20021;-67
2022/01/08 04:17:52;;;;;;;4.28;1.00;;;28.60;99.90;;;;;;5054512;28;20048;-66
2022/01/08 04:20:21;;;;;;;2.47;1.30;;;28.70;99.90;;;;;;5054500;28;20424;-66
2022/01/08 04:22:50;;;;;;;5.60;1.25;;;28.70;99.90;;;;;;5060852;28;20051;-66
2022/01/08 04:25:21;;;;;;;3.78;1.25;;;28.80;99.90;;;;;;5068743;28;20036;-67
2022/01/08 04:27:49;;;;;;;3.85;0.88;;;28.90;99.90;;;;;;5073586;28;20020;-66
2022/01/08 04:30:17;;;;;;;1.92;1.00;;;29.00;99.90;;;;;;5073752;28;20089;-66
2022/01/08 04:32:45;;;;;;;1.00;0.60;;;28.90;99.90;;;;;;5064164;28;20051;-67
2022/01/08 04:35:13;;;;;;;1.17;0.60;;;29.00;99.90;;;;;;5071984;28;20045;-67
2022/01/08 04:37:40;;;;;;;2.05;0.70;;;29.20;99.90;;;;;;5071630;28;20178;-67
2022/01/08 04:40:08;;;;;;;2.90;0.70;;;29.00;99.90;;;;;;5074214;28;20024;-67
2022/01/08 04:42:35;;;;;;;3.55;0.52;;;29.00;99.90;;;;;;5072162;28;20052;-67
2022/01/08 04:45:03;;;;;;;1.88;0.68;;;29.00;99.90;;;;;;5072443;28;20033;-67
2022/01/08 04:47:30;;;;;;;2.70;0.63;;;28.90;99.90;;;;;;5068670;28;20032;-67
2022/01/08 04:50:02;;;;;;;1.08;0.60;;;28.90;99.90;;;;;;5073311;28;20036;-67
2022/01/08 04:52:30;;;;;;;2.65;0.60;;;28.80;99.90;;;;;;5071429;28;20948;-67
2022/01/08 04:54:57;;;;;;;3.47;0.40;;;28.70;99.90;;;;;;5073663;28;20401;-68
2022/01/08 04:57:24;;;;;;;1.88;0.63;;;28.60;99.90;;;;;;5069133;28;20116;-65
2022/01/08 04:59:51;;;;;;;1.95;0.32;;;28.70;99.90;;;;;;5053511;28;20052;-66
2022/01/08 05:02:19;;;;;;;1.77;0.40;;;28.80;99.90;;;;;;5056896;28;20017;-67
2022/01/08 05:04:46;;;;;;;1.80;0.40;;;28.70;99.90;;;;;;5071611;28;20098;-67
2022/01/08 05:07:13;;;;;;;1.42;0.38;;;28.70;99.90;;;;;;5071079;28;20053;-67
2022/01/08 05:09:41;;;;;;;1.00;0.30;;;28.60;99.90;;;;;;5070296;28;20052;-66
2022/01/08 05:12:08;;;;;;;2.65;0.50;;;28.40;99.90;;;;;;5071754;28;20078;-66
2022/01/08 05:14:36;;;;;;;2.10;0.52;;;28.50;99.90;;;;;;5073177;28;20546;-66
2022/01/08 05:17:03;;;;;;;1.15;0.40;;;28.60;99.90;;;;;;5066308;28;20025;-66
2022/01/08 05:19:49;;;;;;;0.98;0.40;;;28.40;99.90;;;;;;5073293;28;20024;-66
2022/01/08 05:22:23;;;;;;;2.28;0.60;;;28.50;99.90;;;;;;5072231;28;20035;-66
2022/01/08 05:24:52;;;;;;;1.75;0.40;;;28.30;99.90;;;;;;5066939;28;20024;-66
2022/01/08 05:27:19;;;;;;;4.10;0.30;;;28.10;99.90;;;;;;5064819;28;20405;-66
2022/01/08 05:29:49;;;;;;;2.25;0.50;;;28.10;99.90;;;;;;5072788;28;20515;-66
2022/01/08 05:32:18;;;;;;;1.13;0.30;;;28.10;99.90;;;;;;5072274;28;20028;-66
2022/01/08 05:34:48;;;;;;;1.90;0.50;;;28.10;99.90;;;;;;5072852;28;20035;-66
2022/01/08 05:37:16;;;;;;;1.58;0.40;;;28.30;99.90;;;;;;5069453;28;20044;-66
2022/01/08 05:39:46;;;;;;;1.50;0.40;;;28.20;99.90;;;;;;5052921;28;20017;-66
2022/01/08 05:42:13;;;;;;;1.42;0.40;;;28.10;99.90;;;;;;5054484;28;20489;-66
2022/01/08 05:44:41;;;;;;;1.55;0.60;;;28.10;99.90;;;;;;5073157;28;20047;-67
2022/01/08 05:47:08;;;;;;;1.25;0.52;;;28.20;99.90;;;;;;5061476;28;20035;-67
2022/01/08 05:49:36;;;;;;;1.05;0.40;;;28.20;99.90;;;;;;5054422;28;20619;-67
2022/01/08 05:52:04;;;;;;;1.65;0.32;;;28.00;99.90;;;;;;5050204;28;20031;-67
2022/01/08 05:54:34;;;;;;;1.38;0.40;;;27.80;99.90;;;;;;5071638;28;20021;-66
2022/01/08 05:57:01;;;;;;;1.90;0.30;;;27.90;99.90;;;;;;5053726;28;20032;-67
2022/01/08 05:59:28;;;;;;;2.25;0.65;;;28.10;99.90;;;;;;5072426;28;20028;-66
2022/01/08 06:01:56;;;;;;;0.60;0.40;;;28.10;99.90;;;;;;5068921;28;20017;-66
2022/01/08 06:04:24;;;;;;;0.85;0.20;;;28.10;99.90;;;;;;5068127;28;20500;-66
2022/01/08 06:06:51;;;;;;;1.27;0.52;;;28.20;99.90;;;;;;5070350;28;20060;-67
2022/01/08 06:09:18;;;;;;;0.80;0.20;;;28.10;99.90;;;;;;5061400;28;20041;-67
2022/01/08 06:11:46;;;;;;;1.60;0.30;;;28.10;99.90;;;;;;5071172;28;20400;-66
2022/01/08 06:14:14;;;;;;;1.45;0.40;;;27.90;99.90;;;;;;5065862;28;20021;-66
2022/01/08 06:16:41;;;;;;;2.03;0.30;;;27.40;99.90;;;;;;5039913;28;20477;-67
2022/01/08 06:19:11;;;;;;;0.50;0.40;;;27.20;99.90;;;;;;5065271;28;20017;-67
2022/01/08 06:21:42;;;;;;;2.67;0.70;;;27.30;99.90;;;;;;5049491;28;20518;-67
2022/01/08 06:24:09;;;;;;;2.15;0.70;;;27.40;99.90;;;;;;5053221;28;20086;-67
2022/01/08 06:26:37;;;;;;;5.68;3.08;;;27.30;99.90;;;;;;5058727;28;20389;-68
2022/01/08 06:29:06;;;;;;;6.35;3.42;;;27.10;99.90;;;;;;5063788;28;20030;-67
2022/01/08 06:31:34;;;;;;;10.50;7.95;;;26.90;99.90;;;;;;5066785;28;20017;-66
2022/01/08 06:34:03;;;;;;;4.63;3.45;;;26.80;99.90;;;;;;5058916;28;20021;-67
2022/01/08 06:36:31;;;;;;;6.20;3.90;;;26.60;99.90;;;;;;5069222;28;20112;-67
2022/01/08 06:38:58;;;;;;;3.50;0.90;;;26.30;99.90;;;;;;5058540;28;20031;-67
2022/01/08 06:41:29;;;;;;;1.25;0.50;;;26.10;99.90;;;;;;5048561;28;20041;-67
2022/01/08 06:43:59;;;;;;;1.77;0.40;;;26.10;99.90;;;;;;5068267;28;20044;-66
2022/01/08 06:46:26;;;;;;;1.65;0.60;;;26.10;99.90;;;;;;5042456;28;20119;-67
2022/01/08 06:48:54;;;;;;;1.75;0.95;;;25.90;99.90;;;;;;5071469;28;20070;-66
2022/01/08 06:51:21;;;;;;;2.45;1.20;;;25.80;99.90;;;;;;5068640;28;20043;-66
2022/01/08 06:53:48;;;;;;;3.05;0.75;;;25.70;99.90;;;;;;5074417;28;20096;-66
2022/01/08 06:56:17;;;;;;;1.92;1.02;;;25.60;99.90;;;;;;5065525;28;20028;-66
2022/01/08 06:58:47;;;;;;;3.17;0.63;;;25.60;99.90;;;;;;5074591;28;20032;-65
2022/01/08 07:01:15;;;;;;;1.75;0.75;;;25.50;99.90;;;;;;5061399;28;20033;-66
2022/01/08 07:03:44;;;;;;;3.42;0.80;;;25.20;99.90;;;;;;5065540;28;20435;-66
2022/01/08 07:06:12;;;;;;;3.25;1.67;;;24.90;99.90;;;;;;5075157;28;20070;-66
2022/01/08 07:08:40;;;;;;;3.35;1.58;;;24.70;99.90;;;;;;5068126;28;20086;-65
2022/01/08 07:11:09;;;;;;;4.88;2.95;;;24.40;99.90;;;;;;5052164;28;20029;-65
2022/01/08 07:13:37;;;;;;;5.82;2.55;;;24.20;99.90;;;;;;5073880;28;20033;-65
2022/01/08 07:16:05;;;;;;;4.63;2.85;;;24.00;99.90;;;;;;5052612;28;20040;-65
2022/01/08 07:18:33;;;;;;;4.75;2.65;;;24.00;99.90;;;;;;5058809;28;20028;-65
2022/01/08 07:21:00;;;;;;;7.85;2.47;;;24.10;99.90;;;;;;5073911;28;20028;-65
2022/01/08 07:23:27;;;;;;;5.90;2.67;;;24.00;99.90;;;;;;5069995;28;20036;-65
2022/01/08 07:25:55;;;;;;;6.13;2.80;;;23.90;99.90;;;;;;5073750;28;20032;-65
2022/01/08 07:28:22;;;;;;;6.00;2.75;;;23.80;99.90;;;;;;5067286;28;20082;-65
2022/01/08 07:30:50;;;;;;;7.75;2.60;;;23.80;99.90;;;;;;5071651;28;20044;-65
2022/01/08 07:33:17;;;;;;;3.50;2.00;;;23.80;99.90;;;;;;5072228;28;20024;-65
2022/01/08 07:35:44;;;;;;;6.55;2.42;;;23.90;99.90;;;;;;5076249;28;20025;-66
2022/01/08 07:38:12;;;;;;;7.13;2.42;;;24.10;99.90;;;;;;5060987;28;20452;-65
2022/01/08 07:40:39;;;;;;;5.07;1.92;;;24.20;99.90;;;;;;5071710;28;20082;-65
2022/01/08 07:43:06;;;;;;;4.53;1.98;;;24.20;99.90;;;;;;5049932;28;20021;-66
2022/01/08 07:45:34;;;;;;;3.90;2.17;;;24.50;99.90;;;;;;5070908;28;20025;-66
2022/01/08 07:48:01;;;;;;;6.85;2.75;;;24.40;99.90;;;;;;5073842;28;20058;-65
2022/01/08 07:50:28;;;;;;;5.75;2.45;;;24.20;99.90;;;;;;5071333;28;20039;-65
2022/01/08 07:52:56;;;;;;;5.40;2.58;;;24.10;99.90;;;;;;5053015;28;20040;-65
2022/01/08 07:55:23;;;;;;;4.85;2.45;;;24.00;99.90;;;;;;5072968;28;20077;-65
2022/01/08 07:57:50;;;;;;;6.95;2.70;;;24.00;99.90;;;;;;5054071;28;20028;-66
2022/01/08 08:00:18;;;;;;;6.93;2.78;;;24.10;99.90;;;;;;5072129;28;20024;-66
2022/01/08 08:02:51;;;;;;;8.32;2.35;;;24.20;99.90;;;;;;5071065;28;20089;-66
2022/01/08 08:05:19;;;;;;;6.80;2.17;;;24.30;99.90;;;;;;5073803;28;20032;-66
2022/01/08 08:07:46;;;;;;;4.57;1.58;;;24.30;99.90;;;;;;5074020;28;20038;-66
2022/01/08 08:10:21;;;;;;;8.30;1.58;;;24.30;99.90;;;;;;5071437;28;20032;-66
2022/01/08 08:12:48;;;;;;;4.88;2.10;;;24.20;99.90;;;;;;5048809;28;20366;-66
2022/01/08 08:15:17;;;;;;;9.15;1.85;;;24.20;99.90;;;;;;5073823;28;20500;-66
2022/01/08 08:17:44;;;;;;;3.67;1.63;;;24.10;99.90;;;;;;5066267;28;20036;-65
2022/01/08 08:20:15;;;;;;;4.13;1.35;;;24.00;99.90;;;;;;5054448;28;20032;-62
2022/01/08 08:22:42;;;;;;;8.85;1.70;;;23.80;99.90;;;;;;5065702;28;20484;-67
2022/01/08 08:25:12;;;;;;;5.18;1.67;;;23.80;99.90;;;;;;5067882;28;20028;-67
2022/01/08 08:27:40;;;;;;;5.18;1.65;;;23.80;99.90;;;;;;5053564;28;20036;-66
2022/01/08 08:30:09;;;;;;;6.47;1.73;;;23.70;99.90;;;;;;5055449;28;20036;-66
2022/01/08 08:32:37;;;;;;;10.35;1.67;;;23.70;99.90;;;;;;5068542;28;20465;-66
2022/01/08 08:35:05;;;;;;;6.63;1.88;;;23.50;99.90;;;;;;5072545;28;20021;-65
2022/01/08 08:37:37;;;;;;;8.35;1.70;;;23.40;99.90;;;;;;5071907;28;20025;-65
2022/01/08 08:40:05;;;;;;;4.30;1.42;;;23.40;99.90;;;;;;5069928;28;20028;-66
2022/01/08 08:42:35;;;;;;;7.40;1.45;;;23.40;99.90;;;;;;5070364;28;20118;-66
2022/01/08 08:45:06;;;;;;;4.15;1.30;;;23.40;99.90;;;;;;5070283;28;20012;-66
2022/01/08 08:47:33;;;;;;;4.63;1.30;;;23.20;99.90;;;;;;5065995;28;20024;-66
2022/01/08 08:50:01;;;;;;;7.13;1.30;;;23.20;99.90;;;;;;5069993;28;20024;-65
2022/01/08 08:52:28;;;;;;;2.95;1.35;;;23.10;99.90;;;;;;5069333;28;20036;-66
2022/01/08 08:54:56;;;;;;;4.10;1.60;;;23.10;99.90;;;;;;5072527;28;20098;-65
2022/01/08 08:57:23;;;;;;;7.32;1.70;;;23.10;99.90;;;;;;5051329;28;20069;-66
2022/01/08 08:59:50;;;;;;;7.13;2.05;;;22.90;99.90;;;;;;5070491;28;20122;-66
2022/01/08 09:02:18;;;;;;;4.38;1.38;;;22.90;99.90;;;;;;5072452;28;20044;-66
2022/01/08 09:04:45;;;;;;;8.05;2.85;;;22.80;99.90;;;;;;5072398;28;20538;-66
2022/01/08 09:07:12;;;;;;;9.05;2.38;;;22.80;99.90;;;;;;5069788;28;20045;-66
2022/01/08 09:09:40;;;;;;;11.88;2.88;;;22.70;99.90;;;;;;5071709;28;20071;-66
2022/01/08 09:12:15;;;;;;;8.32;2.10;;;22.80;99.90;;;;;;5053650;28;20477;-67
2022/01/08 09:14:44;;;;;;;5.55;2.10;;;22.80;99.90;;;;;;5057818;28;20033;-66
2022/01/08 09:17:13;;;;;;;4.63;1.33;;;22.80;99.90;;;;;;5068204;28;20020;-67
2022/01/08 09:19:41;;;;;;;10.10;1.15;;;22.80;99.90;;;;;;5071214;28;20485;-67
2022/01/08 09:22:08;;;;;;;4.63;0.95;;;22.70;99.90;;;;;;5053823;28;20025;-67
2022/01/08 09:24:36;;;;;;;3.72;0.88;;;22.50;99.90;;;;;;5066453;28;20029;-67
2022/01/08 09:27:04;;;;;;;5.95;1.33;;;22.50;99.90;;;;;;5072121;28;20424;-66
2022/01/08 09:29:32;;;;;;;4.03;1.27;;;22.40;99.90;;;;;;5054069;28;20094;-66
2022/01/08 09:32:06;;;;;;;4.95;0.80;;;22.40;99.90;;;;;;5068648;28;20480;-66
2022/01/08 09:34:33;;;;;;;4.97;1.35;;;22.40;99.90;;;;;;5071983;28;20031;-67
2022/01/08 09:37:01;;;;;;;13.18;1.98;;;22.40;99.90;;;;;;5072406;28;20094;-67
2022/01/08 09:39:28;;;;;;;6.80;1.42;;;22.40;99.90;;;;;;5065284;28;20484;-66
2022/01/08 09:41:56;;;;;;;7.78;1.60;;;22.50;99.90;;;;;;5059677;28;20032;-66
2022/01/08 09:44:24;;;;;;;6.88;1.77;;;22.40;99.90;;;;;;5070994;28;20481;-66
2022/01/08 09:46:51;;;;;;;12.70;2.95;;;22.40;99.90;;;;;;5071400;28;20069;-66
2022/01/08 09:49:21;;;;;;;5.75;1.77;;;22.40;99.90;;;;;;5071851;28;20056;-66
2022/01/08 09:51:48;;;;;;;4.68;1.35;;;22.40;99.90;;;;;;5071192;28;20451;-67
2022/01/08 09:54:17;;;;;;;5.15;1.33;;;22.50;99.90;;;;;;5058106;28;20417;-66
2022/01/08 09:56:44;;;;;;;8.68;1.65;;;22.50;99.90;;;;;;5034332;28;20029;-66
2022/01/08 09:59:12;;;;;;;6.32;1.23;;;22.40;99.90;;;;;;5070134;28;20028;-66
2022/01/08 10:01:39;;;;;;;7.45;1.65;;;22.50;99.90;;;;;;5064410;28;20029;-65
2022/01/08 10:04:10;;;;;;;13.93;5.45;;;22.50;99.90;;;;;;5058407;28;20111;-67
2022/01/08 10:06:41;;;;;;;4.53;2.13;;;22.50;99.90;;;;;;5067494;28;20052;-67
2022/01/08 10:09:08;;;;;;;7.75;1.83;;;22.50;99.90;;;;;;5071431;28;20025;-67
2022/01/08 10:11:40;;;;;;;7.25;1.25;;;22.50;99.90;;;;;;5068783;28;20505;-67
2022/01/08 10:14:15;;;;;;;5.38;1.33;;;22.50;99.90;;;;;;5068223;28;20039;-66
2022/01/08 10:19:30;;;;;;;9.00;1.70;;;22.50;99.90;;;;;;5064691;28;20024;-66
2022/01/08 10:21:58;;;;;;;6.68;2.03;;;22.50;99.90;;;;;;5056606;28;20029;-67
2022/01/08 10:24:31;;;;;;;4.40;2.15;;;22.50;99.90;;;;;;5066294;28;20496;-66
2022/01/08 10:27:08;;;;;;;6.38;2.00;;;22.50;99.90;;;;;;5071210;28;20020;-66
2022/01/08 10:29:36;;;;;;;4.38;1.45;;;22.50;99.90;;;;;;5071300;28;20396;-66
2022/01/08 10:32:07;;;;;;;8.52;1.75;;;22.50;99.90;;;;;;5069612;28;20081;-67
2022/01/08 10:34:36;;;;;;;7.13;2.13;;;22.50;99.90;;;;;;5068935;28;20049;-67
2022/01/08 10:37:06;;;;;;;7.60;2.92;;;22.50;99.90;;;;;;5068763;28;20035;-66
2022/01/08 10:39:38;;;;;;;7.80;2.20;;;22.50;99.90;;;;;;5066365;28;20029;-67
2022/01/08 10:42:17;;;;;;;7.97;3.17;;;22.50;99.90;;;;;;5069742;28;20021;-67
2022/01/08 10:44:47;;;;;;;8.70;2.47;;;22.50;99.90;;;;;;5060529;28;20107;-67
2022/01/08 10:47:19;;;;;;;5.35;2.33;;;22.50;99.90;;;;;;5070778;28;20025;-67
2022/01/08 10:50:00;;;;;;;6.32;2.72;;;22.60;99.90;;;;;;5068883;28;20489;-67
2022/01/08 10:52:28;;;;;;;8.38;3.33;;;22.50;99.90;;;;;;5051176;28;20512;-67
2022/01/08 10:54:58;;;;;;;7.93;2.60;;;22.50;99.90;;;;;;5068933;28;20122;-67
2022/01/08 10:57:38;;;;;;;10.52;3.38;;;22.50;99.90;;;;;;5068631;28;20050;-67
2022/01/08 11:00:08;;;;;;;8.45;2.97;;;22.50;99.90;;;;;;5053090;28;20056;-67
2022/01/08 11:02:38;;;;;;;9.02;3.70;;;22.40;99.90;;;;;;5070871;28;20112;-67
2022/01/08 11:05:10;;;;;;;10.75;3.78;;;22.50;99.90;;;;;;5066410;28;20082;-67
2022/01/08 11:07:41;;;;;;;11.13;3.72;;;22.50;99.90;;;;;;5060028;28;20074;-67
2022/01/08 11:10:16;;;;;;;12.23;4.13;;;22.50;99.90;;;;;;5069117;28;20489;-67
2022/01/08 11:12:47;;;;;;;6.68;3.42;;;22.50;99.90;;;;;;5056225;28;20028;-67
2022/01/08 11:17:54;;;;;;;12.68;4.00;;;22.50;99.90;;;;;;5070323;28;20024;-67
2022/01/08 11:20:25;;;;;;;;;;;22.50;99.90;;;;;;5068711;28;20585;-67
2022/01/08 11:22:58;;;;;;;8.55;3.55;;;22.50;99.90;;;;;;5068923;28;20372;-67
2022/01/08 11:25:34;;;;;;;8.10;3.40;;;22.50;99.90;;;;;;5071550;28;20388;-67
2022/01/08 11:28:12;;;;;;;10.73;3.85;;;22.50;99.90;;;;;;5072482;28;20021;-67
2022/01/08 11:30:56;;;;;;;10.57;3.78;;;22.50;99.90;;;;;;5064937;28;20055;-67
2022/01/08 11:33:28;;;;;;;9.67;3.50;;;22.50;99.90;;;;;;5071916;28;20036;-67
2022/01/08 11:35:56;;;;;;;9.70;3.55;;;22.50;99.90;;;;;;5068953;28;20037;-67
2022/01/08 11:38:26;;;;;;;8.38;3.75;;;22.50;99.90;;;;;;5064560;28;20104;-67
2022/01/08 11:40:56;;;;;;;9.43;4.10;;;22.50;99.90;;;;;;5070262;28;20067;-67
2022/01/08 11:43:25;;;;;;;8.00;3.35;;;22.50;99.90;;;;;;5059370;28;20032;-67
2022/01/08 11:45:56;;;;;;;14.98;3.53;;;22.50;99.90;;;;;;5073316;28;20021;-67
2022/01/08 11:48:28;;;;;;;13.80;4.03;;;22.60;99.90;;;;;;5072867;28;20029;-66
2022/01/08 11:50:58;;;;;;;12.10;3.78;;;22.60;99.90;;;;;;5071362;28;20024;-67
2022/01/08 11:53:27;;;;;;;10.52;3.75;;;22.60;99.90;;;;;;5073460;28;20025;-67
2022/01/08 11:56:04;;;;;;;11.75;4.50;;;22.60;99.90;;;;;;5073029;28;20027;-67
2022/01/08 11:58:36;;;;;;;13.73;4.47;;;22.60;99.90;;;;;;5059526;28;20120;-66
2022/01/08 12:01:14;;;;;;;12.38;4.55;;;22.60;99.90;;;;;;5072241;28;20020;-67
2022/01/08 12:03:50;;;;;;;15.30;4.32;;;22.60;99.90;;;;;;5068114;28;20033;-66
2022/01/08 12:06:25;;;;;;;14.65;5.97;;;22.60;99.90;;;;;;5072946;28;20453;-66
2022/01/08 12:09:10;;;;;;;13.50;4.43;;;22.60;99.90;;;;;;5049768;28;20068;-66
2022/01/08 12:11:44;;;;;;;9.10;4.22;;;22.50;99.90;;;;;;5065308;28;20033;-66
2022/01/08 12:14:15;;;;;;;10.85;4.35;;;22.50;99.90;;;;;;5054460;28;20094;-67
2022/01/08 12:16:47;;;;;;;13.57;4.35;;;22.50;99.90;;;;;;5069590;28;20031;-67
2022/01/08 12:19:36;;;;;;;9.68;4.78;;;22.50;99.90;;;;;;5073560;28;20029;-66
2022/01/08 12:22:22;;;;;;;14.10;3.72;;;22.60;99.90;;;;;;5073825;28;20385;-66
2022/01/08 12:25:02;;;;;;;13.65;5.45;;;22.50;99.90;;;;;;5070547;28;20085;-66
2022/01/08 12:27:38;;;;;;;16.10;4.53;;;22.50;99.90;;;;;;5072153;28;20024;-66
2022/01/08 12:30:31;;;;;;;18.13;5.10;;;22.60;99.90;;;;;;5068938;28;20126;-67
2022/01/08 12:33:20;;;;;;;11.90;4.65;;;22.60;99.90;;;;;;5057795;28;20136;-66
2022/01/08 12:35:50;;;;;;;13.07;4.50;;;22.60;99.90;;;;;;5070190;28;20036;-66
2022/01/08 12:38:31;;;;;;;13.98;5.13;;;22.60;99.90;;;;;;5071024;28;20025;-66
2022/01/08 12:40:59;;;;;;;14.80;4.00;;;22.50;99.90;;;;;;5064844;28;20066;-66
2022/01/08 12:43:36;;;;;;;18.10;5.07;;;22.50;99.90;;;;;;5071428;28;20039;-66
2022/01/08 12:46:26;;;;;;;13.98;4.90;;;22.50;99.90;;;;;;5068801;28;20016;-66
2022/01/08 12:49:14;;;;;;;17.88;4.72;;;22.50;99.90;;;;;;5070740;28;20033;-66
2022/01/08 12:51:55;;;;;;;15.63;5.55;;;22.50;99.90;;;;;;5070861;28;20477;-66
2022/01/08 12:54:23;;;;;;;15.60;4.05;;;22.50;99.90;;;;;;5069239;28;20419;-66
2022/01/08 12:56:56;;;;;;;21.85;5.20;;;22.50;99.90;;;;;;5068095;28;20028;-66
2022/01/08 12:59:33;;;;;;;11.65;4.32;;;22.40;99.90;;;;;;5071992;28;20544;-66
2022/01/08 13:02:00;;;;;;;12.35;4.28;;;22.40;99.90;;;;;;5072177;28;20081;-66
2022/01/08 13:04:28;;;;;;;12.93;4.55;;;22.40;99.90;;;;;;5046607;28;20040;-66
2022/01/08 13:06:55;;;;;;;12.40;4.82;;;22.40;99.90;;;;;;5059837;28;20800;-66
2022/01/08 13:09:24;;;;;;;16.88;5.65;;;22.40;99.90;;;;;;5069084;28;20047;-66
2022/01/08 13:11:51;;;;;;;11.98;4.28;;;22.30;99.90;;;;;;5071036;28;20028;-66
2022/01/08 13:14:21;;;;;;;17.30;4.95;;;22.30;99.90;;;;;;5070029;28;20028;-66
2022/01/08 13:16:54;;;;;;;16.40;4.75;;;22.20;99.90;;;;;;5068135;28;20017;-66
2022/01/08 13:19:30;;;;;;;14.00;4.75;;;22.20;99.90;;;;;;5071658;28;20028;-66
2022/01/08 13:22:04;;;;;;;18.95;5.22;;;22.10;99.90;;;;;;5071707;28;20016;-66
2022/01/08 13:24:34;;;;;;;18.27;5.97;;;22.10;99.90;;;;;;5071841;28;20024;-66